createdAt,value
2022-12-03T00:01:21.255Z,7.17
2022-12-03T00:04:25.226Z,6.96
2022-12-03T00:07:29.102Z,6.96
2022-12-03T00:10:33.079Z,6.56
2022-12-03T00:13:37.055Z,7.23
2022-12-03T00:16:40.691Z,7.22
2022-12-03T00:19:44.960Z,7.08
2022-12-03T00:22:49.007Z,6.82
2022-12-03T00:25:53.010Z,5.85
2022-12-03T00:28:57.115Z,6.15
2022-12-03T00:32:01.226Z,6.58
2022-12-03T00:35:05.368Z,6.38
2022-12-03T00:38:09.535Z,6.68
2022-12-03T00:41:12.897Z,6.62
2022-12-03T00:44:16.986Z,6.82
2022-12-03T00:47:21.371Z,5.56
2022-12-03T00:50:25.624Z,5.40
2022-12-03T00:53:29.887Z,6.33
2022-12-03T00:56:33.614Z,6.13
2022-12-03T00:59:37.703Z,6.05
2022-12-03T01:02:41.823Z,6.22
2022-12-03T01:05:45.286Z,6.37
2022-12-03T01:08:48.894Z,6.22
2022-12-03T01:11:52.931Z,5.78
2022-12-03T01:14:56.634Z,6.22
2022-12-03T01:18:00.524Z,6.43
2022-12-03T01:21:05.296Z,6.48
2022-12-03T01:24:09.396Z,5.72
2022-12-03T01:27:13.702Z,5.80
2022-12-03T01:30:17.534Z,6.36
2022-12-03T01:33:21.502Z,6.44
2022-12-03T01:36:25.382Z,6.30
2022-12-03T01:39:29.272Z,6.37
2022-12-03T01:42:33.440Z,6.43
2022-12-03T01:45:37.391Z,6.47
2022-12-03T01:48:41.647Z,6.47
2022-12-03T01:51:45.558Z,6.64
2022-12-03T01:54:49.185Z,6.82
2022-12-03T01:57:53.147Z,6.06
2022-12-03T02:00:57.328Z,5.88
2022-12-03T02:04:01.455Z,5.48
2022-12-03T02:07:05.489Z,6.26
2022-12-03T02:10:10.248Z,5.47
2022-12-03T02:13:14.418Z,5.44
2022-12-03T02:16:18.630Z,5.40
2022-12-03T02:19:22.617Z,5.17
2022-12-03T02:22:26.555Z,5.54
2022-12-03T02:25:30.944Z,4.90
2022-12-03T02:28:34.990Z,5.14
2022-12-03T02:31:38.820Z,5.12
2022-12-03T02:34:44.043Z,4.96
2022-12-03T02:37:47.705Z,5.23
2022-12-03T02:40:54.007Z,5.26
2022-12-03T02:43:57.715Z,5.36
2022-12-03T02:47:01.751Z,5.39
2022-12-03T02:50:05.679Z,5.74
2022-12-03T02:53:09.563Z,5.22
2022-12-03T02:56:13.540Z,5.02
2022-12-03T02:59:17.320Z,5.49
2022-12-03T03:02:21.217Z,5.60
2022-12-03T03:05:25.154Z,5.51
2022-12-03T03:08:29.322Z,5.72
2022-12-03T03:11:33.517Z,5.79
2022-12-03T03:14:37.590Z,5.76
2022-12-03T03:17:41.687Z,5.10
2022-12-03T03:20:45.991Z,5.36
2022-12-03T03:23:50.042Z,5.58
2022-12-03T03:26:54.151Z,5.54
2022-12-03T03:29:58.210Z,5.17
2022-12-03T03:33:02.103Z,4.88
2022-12-03T03:36:06.168Z,5.50
2022-12-03T03:39:10.253Z,5.62
2022-12-03T03:42:14.122Z,5.03
2022-12-03T03:45:19.218Z,4.81
2022-12-03T03:48:25.185Z,3.86
2022-12-03T03:51:29.809Z,4.49
2022-12-03T03:54:33.878Z,4.75
2022-12-03T03:57:38.092Z,4.40
2022-12-03T04:00:41.880Z,4.66
2022-12-03T04:03:45.985Z,4.70
2022-12-03T04:06:50.138Z,4.73
2022-12-03T04:09:54.309Z,5.06
2022-12-03T04:12:58.292Z,5.10
2022-12-03T04:16:02.356Z,4.91
2022-12-03T04:19:08.264Z,5.41
2022-12-03T04:22:12.288Z,4.59
2022-12-03T04:25:16.621Z,4.57
2022-12-03T04:28:20.653Z,4.57
2022-12-03T04:31:24.865Z,5.07
2022-12-03T04:34:28.686Z,4.43
2022-12-03T04:37:32.839Z,4.73
2022-12-03T04:40:36.994Z,4.69
2022-12-03T04:43:41.000Z,4.60
2022-12-03T04:46:45.831Z,5.02
2022-12-03T04:49:50.068Z,4.91
2022-12-03T04:52:54.352Z,5.10
2022-12-03T04:55:58.455Z,4.97
2022-12-03T04:59:02.460Z,4.85
2022-12-03T05:02:06.519Z,3.98
2022-12-03T05:05:10.588Z,4.60
2022-12-03T05:08:14.612Z,4.84
2022-12-03T05:11:18.539Z,4.57
2022-12-03T05:14:22.613Z,4.53
2022-12-03T05:17:26.829Z,4.27
2022-12-03T05:20:31.224Z,4.28
2022-12-03T05:23:35.228Z,4.85
2022-12-03T05:26:39.408Z,4.95
2022-12-03T05:29:43.296Z,5.06
2022-12-03T05:32:47.195Z,5.17
2022-12-03T05:35:51.365Z,5.28
2022-12-03T05:38:55.370Z,5.01
2022-12-03T05:41:59.232Z,4.63
2022-12-03T05:45:03.241Z,4.89
2022-12-03T05:48:07.244Z,4.84
2022-12-03T05:51:11.261Z,4.29
2022-12-03T05:54:15.288Z,4.66
2022-12-03T05:57:20.070Z,4.71
2022-12-03T06:00:24.435Z,4.31
2022-12-03T06:03:28.582Z,4.44
2022-12-03T06:06:32.537Z,5.08
2022-12-03T06:09:36.523Z,4.59
2022-12-03T06:12:40.368Z,4.68
2022-12-03T06:15:44.602Z,4.95
2022-12-03T06:18:48.732Z,4.97
2022-12-03T06:21:52.874Z,4.90
2022-12-03T06:24:59.664Z,4.94
2022-12-03T06:28:07.369Z,4.84
2022-12-03T06:31:11.185Z,4.56
2022-12-03T06:34:15.420Z,4.95
2022-12-03T06:37:19.741Z,5.00
2022-12-03T06:40:23.597Z,5.00
2022-12-03T06:43:27.551Z,4.69
2022-12-03T06:46:31.923Z,4.27
2022-12-03T06:49:35.938Z,4.06
2022-12-03T06:52:39.856Z,4.55
2022-12-03T06:55:44.304Z,4.98
2022-12-03T06:58:48.979Z,5.27
2022-12-03T07:01:53.006Z,5.18
2022-12-03T07:04:57.681Z,4.78
2022-12-03T07:08:02.076Z,5.26
2022-12-03T07:11:06.135Z,5.24
2022-12-03T07:14:10.086Z,5.14
2022-12-03T07:17:14.028Z,5.57
2022-12-03T07:20:18.162Z,5.46
2022-12-03T07:23:22.496Z,5.77
2022-12-03T07:26:26.453Z,5.82
2022-12-03T07:29:30.505Z,6.05
2022-12-03T07:32:34.636Z,6.12
2022-12-03T07:35:38.905Z,6.29
2022-12-03T07:38:42.946Z,6.23
2022-12-03T07:41:46.959Z,6.13
2022-12-03T07:44:51.142Z,6.11
2022-12-03T07:47:54.912Z,5.82
2022-12-03T07:50:59.000Z,5.85
2022-12-03T07:54:02.967Z,5.73
2022-12-03T07:57:07.010Z,5.52
2022-12-03T08:00:10.867Z,5.80
2022-12-03T08:03:14.902Z,6.20
2022-12-03T08:06:19.080Z,6.29
2022-12-03T08:09:23.008Z,6.46
2022-12-03T08:12:26.877Z,6.25
2022-12-03T08:15:35.373Z,6.45
2022-12-03T08:18:43.148Z,5.96
2022-12-03T08:21:47.373Z,6.42
2022-12-03T08:24:51.906Z,6.11
2022-12-03T08:27:56.083Z,6.07
2022-12-03T08:31:00.153Z,5.96
2022-12-03T08:34:04.210Z,5.95
2022-12-03T08:37:08.350Z,6.17
2022-12-03T08:40:12.426Z,5.97
2022-12-03T08:43:16.440Z,6.12
2022-12-03T08:46:20.427Z,6.50
2022-12-03T08:49:24.204Z,6.55
2022-12-03T08:52:30.455Z,6.73
2022-12-03T08:55:34.727Z,6.69
2022-12-03T08:58:38.650Z,6.54
2022-12-03T09:01:42.744Z,6.86
2022-12-03T09:04:46.616Z,7.26
2022-12-03T09:07:51.014Z,7.24
2022-12-03T09:10:54.859Z,7.59
2022-12-03T09:13:58.789Z,7.57
2022-12-03T09:17:02.802Z,7.74
2022-12-03T09:20:06.737Z,7.61
2022-12-03T09:23:10.829Z,7.32
2022-12-03T09:26:14.799Z,7.30
2022-12-03T09:29:18.823Z,7.71
2022-12-03T09:32:22.899Z,7.71
2022-12-03T09:35:29.020Z,7.52
2022-12-03T09:38:32.926Z,7.81
2022-12-03T09:41:37.050Z,7.73
2022-12-03T09:44:41.038Z,7.59
2022-12-03T09:47:45.070Z,7.58
2022-12-03T09:50:48.952Z,7.47
2022-12-03T09:53:53.071Z,7.49
2022-12-03T09:56:57.060Z,7.80
2022-12-03T10:00:01.000Z,7.71
2022-12-03T10:03:04.862Z,7.92
2022-12-03T10:06:09.408Z,8.06
2022-12-03T10:09:13.647Z,7.87
2022-12-03T10:12:17.639Z,7.99
2022-12-03T10:15:21.721Z,7.89
2022-12-03T10:18:28.752Z,8.02
2022-12-03T10:21:34.529Z,8.17
2022-12-03T10:24:38.696Z,7.49
2022-12-03T10:27:44.814Z,7.38
2022-12-03T10:30:48.851Z,7.42
2022-12-03T10:33:52.641Z,7.59
2022-12-03T10:36:56.615Z,7.21
2022-12-03T10:40:00.759Z,7.15
2022-12-03T10:43:04.661Z,7.48
2022-12-03T10:46:08.714Z,6.97
2022-12-03T10:49:12.827Z,7.20
2022-12-03T10:52:21.229Z,7.28
2022-12-03T10:55:27.915Z,7.16
2022-12-03T10:58:32.227Z,7.36
2022-12-03T11:01:36.401Z,7.22
2022-12-03T11:04:40.312Z,7.49
2022-12-03T11:07:44.344Z,7.69
2022-12-03T11:10:48.210Z,7.47
2022-12-03T11:13:52.293Z,7.56
2022-12-03T11:16:56.372Z,7.48
2022-12-03T11:20:00.213Z,7.78
2022-12-03T11:23:04.120Z,7.34
2022-12-03T11:26:08.171Z,7.23
2022-12-03T11:29:12.288Z,7.72
2022-12-03T11:32:16.316Z,7.56
2022-12-03T11:35:20.034Z,7.39
2022-12-03T11:38:23.885Z,8.04
2022-12-03T11:41:28.169Z,7.83
2022-12-03T11:44:32.171Z,8.15
2022-12-03T11:47:36.227Z,8.48
2022-12-03T11:50:40.598Z,8.23
2022-12-03T11:53:46.357Z,8.53
2022-12-03T11:56:50.330Z,8.31
2022-12-03T11:59:54.464Z,8.35
2022-12-03T12:02:58.261Z,8.58
2022-12-03T12:06:02.128Z,8.59
2022-12-03T12:09:06.328Z,8.70
2022-12-03T12:12:10.064Z,8.36
2022-12-03T12:15:14.234Z,8.52
2022-12-03T12:18:17.881Z,8.68
2022-12-03T12:21:22.016Z,8.50
2022-12-03T12:24:25.987Z,8.66
2022-12-03T12:27:30.079Z,8.26
2022-12-03T12:30:34.162Z,8.21
2022-12-03T12:33:38.163Z,7.79
2022-12-03T12:36:42.184Z,7.89
2022-12-03T12:39:46.673Z,7.42
2022-12-03T12:42:50.873Z,7.47
2022-12-03T12:46:45.446Z,7.81
2022-12-03T12:49:33.480Z,7.54
2022-12-03T12:52:37.596Z,7.54
2022-12-03T12:55:41.527Z,7.60
2022-12-03T12:58:45.530Z,7.28
2022-12-03T13:01:49.474Z,7.05
2022-12-03T13:04:53.429Z,7.42
2022-12-03T13:07:57.532Z,7.29
2022-12-03T13:11:01.605Z,7.39
2022-12-03T13:14:05.619Z,7.40
2022-12-03T13:17:09.385Z,7.30
2022-12-03T13:20:14.110Z,7.45
2022-12-03T13:23:18.595Z,7.89
2022-12-03T13:26:36.099Z,8.23
2022-12-03T13:29:41.566Z,8.23
2022-12-03T13:32:45.468Z,8.20
2022-12-03T13:35:49.400Z,8.29
2022-12-03T13:38:53.606Z,8.05
2022-12-03T13:41:57.880Z,7.87
2022-12-03T13:45:01.756Z,8.26
2022-12-03T13:48:05.920Z,7.87
2022-12-03T13:51:09.795Z,8.09
2022-12-03T13:54:16.010Z,7.78
2022-12-03T13:57:20.414Z,7.61
2022-12-03T14:00:24.288Z,7.25
2022-12-03T14:03:28.232Z,7.36
2022-12-03T14:06:32.483Z,7.79
2022-12-03T14:09:36.887Z,7.59
2022-12-03T14:12:41.398Z,7.59
2022-12-03T14:15:45.351Z,7.78
2022-12-03T14:18:49.382Z,7.69
2022-12-03T14:21:53.588Z,6.95
2022-12-03T14:24:57.782Z,7.21
2022-12-03T14:28:01.704Z,7.08
2022-12-03T14:31:05.563Z,7.28
2022-12-03T14:34:09.642Z,7.08
2022-12-03T14:37:13.912Z,7.03
2022-12-03T14:40:21.406Z,7.19
2022-12-03T14:43:26.132Z,7.21
2022-12-03T14:46:30.014Z,7.19
2022-12-03T14:49:33.948Z,6.50
2022-12-03T14:52:37.806Z,6.75
2022-12-03T14:55:41.960Z,7.01
2022-12-03T14:58:45.941Z,7.05
2022-12-03T15:01:49.835Z,7.14
2022-12-03T15:04:53.562Z,7.02
2022-12-03T15:07:57.832Z,7.22
2022-12-03T15:11:01.883Z,7.35
2022-12-03T15:14:05.657Z,7.18
2022-12-03T15:17:09.600Z,7.03
2022-12-03T15:20:15.200Z,6.60
2022-12-03T15:23:19.257Z,7.19
2022-12-03T15:26:23.184Z,7.25
2022-12-03T15:29:27.202Z,7.13
2022-12-03T15:32:32.235Z,6.54
2022-12-03T15:35:36.245Z,6.21
2022-12-03T15:38:40.453Z,6.79
2022-12-03T15:41:44.328Z,6.83
2022-12-03T15:44:48.211Z,6.56
2022-12-03T15:47:52.196Z,6.46
2022-12-03T15:50:56.258Z,6.48
2022-12-03T15:54:00.167Z,6.23
2022-12-03T15:57:04.144Z,6.09
2022-12-03T16:00:07.991Z,6.22
2022-12-03T16:03:12.092Z,5.84
2022-12-03T16:06:15.908Z,5.81
2022-12-03T16:09:25.294Z,6.32
2022-12-03T16:12:31.314Z,6.77
2022-12-03T16:15:35.191Z,6.41
2022-12-03T16:18:39.084Z,6.80
2022-12-03T16:21:42.950Z,6.42
2022-12-03T16:24:47.138Z,7.00
2022-12-03T16:27:51.334Z,7.26
2022-12-03T16:30:55.289Z,7.33
2022-12-03T16:33:59.168Z,7.36
2022-12-03T16:37:03.263Z,6.89
2022-12-03T16:40:07.426Z,6.71
2022-12-03T16:43:11.296Z,6.49
2022-12-03T16:46:15.107Z,6.41
2022-12-03T16:49:19.407Z,6.38
2022-12-03T16:52:23.419Z,6.62
2022-12-03T16:55:27.302Z,6.80
2022-12-03T16:58:31.158Z,6.18
2022-12-03T17:01:35.214Z,6.29
2022-12-03T17:04:39.264Z,5.93
2022-12-03T17:07:43.564Z,5.92
2022-12-03T17:10:47.434Z,6.49
2022-12-03T17:13:51.246Z,6.34
2022-12-03T17:16:55.303Z,6.81
2022-12-03T17:19:59.352Z,6.85
2022-12-03T17:23:03.471Z,6.18
2022-12-03T17:26:07.487Z,6.36
2022-12-03T17:29:11.307Z,5.57
2022-12-03T17:32:15.365Z,6.50
2022-12-03T17:35:19.485Z,6.51
2022-12-03T17:38:23.290Z,6.42
2022-12-03T17:41:27.169Z,6.68
2022-12-03T17:44:31.177Z,6.45
2022-12-03T17:47:35.415Z,6.85
2022-12-03T17:50:39.397Z,7.27
2022-12-03T17:53:43.279Z,6.90
2022-12-03T17:56:47.238Z,6.64
2022-12-03T17:59:51.706Z,6.37
2022-12-03T18:02:56.084Z,6.58
2022-12-03T18:06:00.251Z,7.09
2022-12-03T18:09:04.023Z,6.97
2022-12-03T18:12:07.932Z,6.47
2022-12-03T18:15:12.254Z,6.84
2022-12-03T18:18:16.392Z,6.33
2022-12-03T18:21:20.318Z,6.05
2022-12-03T18:24:24.327Z,5.89
2022-12-03T18:27:28.496Z,6.00
2022-12-03T18:30:32.276Z,6.02
2022-12-03T18:33:36.288Z,6.23
2022-12-03T18:36:40.241Z,6.04
2022-12-03T18:39:44.106Z,6.09
2022-12-03T18:42:47.971Z,6.63
2022-12-03T18:45:52.138Z,6.63
2022-12-03T18:48:56.113Z,6.46
2022-12-03T18:51:59.962Z,6.71
2022-12-03T18:55:03.863Z,6.35
2022-12-03T18:58:07.852Z,6.13
2022-12-03T19:01:11.869Z,6.69
2022-12-03T19:04:15.542Z,6.25
2022-12-03T19:07:19.593Z,6.38
2022-12-03T19:10:23.657Z,6.78
2022-12-03T19:13:27.801Z,7.11
2022-12-03T19:16:31.841Z,7.28
2022-12-03T19:19:35.822Z,6.77
2022-12-03T19:22:39.711Z,7.21
2022-12-03T19:25:44.931Z,6.97
2022-12-03T19:28:48.781Z,7.44
2022-12-03T19:31:52.642Z,7.38
2022-12-03T19:34:56.638Z,7.15
2022-12-03T19:38:00.678Z,7.17
2022-12-03T19:41:04.842Z,7.01
2022-12-03T19:44:11.066Z,6.71
2022-12-03T19:47:14.787Z,6.86
2022-12-03T19:50:23.038Z,7.26
2022-12-03T19:53:27.068Z,7.37
2022-12-03T19:56:31.188Z,6.87
2022-12-03T19:59:35.236Z,7.00
2022-12-03T20:02:39.315Z,7.08
2022-12-03T20:05:43.138Z,7.16
2022-12-03T20:08:47.894Z,7.07
2022-12-03T20:11:52.018Z,7.51
2022-12-03T20:14:56.062Z,7.15
2022-12-03T20:18:00.081Z,6.81
2022-12-03T20:21:03.942Z,6.56
2022-12-03T20:24:07.895Z,6.10
2022-12-03T20:27:11.926Z,6.49
2022-12-03T20:30:15.929Z,6.73
2022-12-03T20:33:19.930Z,6.54
2022-12-03T20:36:24.115Z,6.35
2022-12-03T20:39:28.150Z,6.62
2022-12-03T20:42:32.070Z,6.61
2022-12-03T20:45:36.072Z,6.72
2022-12-03T20:48:40.050Z,6.31
2022-12-03T20:51:44.019Z,6.42
2022-12-03T20:54:47.946Z,6.61
2022-12-03T20:57:51.843Z,7.07
2022-12-03T21:00:55.676Z,6.91
2022-12-03T21:03:59.438Z,7.18
2022-12-03T21:07:03.528Z,6.85
2022-12-03T21:10:07.637Z,6.81
2022-12-03T21:13:11.533Z,7.39
2022-12-03T21:16:15.630Z,7.28
2022-12-03T21:19:19.470Z,7.32
2022-12-03T21:22:23.518Z,7.17
2022-12-03T21:25:27.559Z,7.09
2022-12-03T21:28:31.388Z,7.38
2022-12-03T21:31:35.517Z,7.46
2022-12-03T21:34:39.534Z,7.60
2022-12-03T21:37:43.622Z,7.53
2022-12-03T21:40:47.108Z,7.04
2022-12-03T21:43:51.155Z,7.09
2022-12-03T21:47:11.088Z,7.13
2022-12-03T21:50:17.409Z,7.26
2022-12-03T21:53:21.658Z,7.71
2022-12-03T21:56:25.477Z,7.57
2022-12-03T21:59:29.187Z,7.61
2022-12-03T22:02:33.297Z,7.50
2022-12-03T22:05:37.457Z,7.23
2022-12-03T22:08:41.592Z,7.39
2022-12-03T22:11:45.502Z,7.38
2022-12-03T22:14:49.527Z,7.09
2022-12-03T22:17:55.705Z,6.98
2022-12-03T22:20:59.815Z,7.07
2022-12-03T22:24:03.788Z,7.12
2022-12-03T22:27:07.598Z,6.84
2022-12-03T22:30:11.399Z,7.06
2022-12-03T22:33:15.306Z,6.77
2022-12-03T22:36:21.424Z,6.91
2022-12-03T22:39:25.758Z,7.11
2022-12-03T22:42:29.695Z,6.79
2022-12-03T22:45:33.778Z,6.67
2022-12-03T22:48:37.921Z,6.83
2022-12-03T22:51:42.070Z,6.68
2022-12-03T22:54:46.318Z,6.74
2022-12-03T22:57:50.284Z,6.43
2022-12-03T23:00:58.570Z,6.44
2022-12-03T23:04:06.148Z,6.32
2022-12-03T23:07:09.834Z,6.21
2022-12-03T23:10:13.866Z,6.20
2022-12-03T23:13:17.961Z,6.58
2022-12-03T23:16:22.113Z,6.90
2022-12-03T23:19:25.932Z,7.08
2022-12-03T23:22:30.011Z,7.25
2022-12-03T23:25:34.073Z,7.11
2022-12-03T23:28:38.154Z,6.87
2022-12-03T23:31:42.099Z,6.99
2022-12-03T23:34:45.965Z,7.17
2022-12-03T23:37:49.923Z,6.98
2022-12-03T23:40:53.937Z,7.50
2022-12-03T23:43:57.746Z,6.93
2022-12-03T23:47:01.725Z,7.26
2022-12-03T23:50:05.670Z,7.60
2022-12-03T23:53:09.763Z,7.74
2022-12-03T23:56:13.750Z,7.29
2022-12-03T23:59:17.578Z,7.41
